Time;durP1;ratioP1;P1;durP2;ratioP2;P2;SDS_P1;SDS_P2;PMS_P1;PMS_P2;Temp;Humidity;BMP_temperature;BMP_pressure;BME280_temperature;BME280_humidity;BME280_pressure;Samples;Min_cycle;Max_cycle;Signal;HPM_P1;HPM_P2
2022/07/09 00:02:17;;;;;;;3.78;1.10;;;;;;;20.50;26.98;93205.41;4774579;30;20043;-74
2022/07/09 00:04:42;;;;;;;4.18;1.00;;;;;;;20.44;26.74;93204.06;4775491;30;20085;-74
2022/07/09 00:07:08;;;;;;;1.55;0.90;;;;;;;20.38;26.88;93201.63;4791335;30;20122;-74
2022/07/09 00:09:34;;;;;;;2.30;1.10;;;;;;;20.38;26.80;93208.81;4775104;30;20138;-74
2022/07/09 00:11:59;;;;;;;3.42;1.08;;;;;;;20.51;26.59;93215.72;4774634;30;20039;-74
2022/07/09 00:14:25;;;;;;;3.92;1.35;;;;;;;20.40;26.93;93211.94;4775147;30;20039;-74
2022/07/09 00:16:50;;;;;;;2.33;1.30;;;;;;;20.31;27.10;93217.34;4774508;30;20418;-74
2022/07/09 00:19:16;;;;;;;3.00;1.27;;;;;;;20.35;27.12;93230.72;4787858;30;20072;-74
2022/07/09 00:21:42;;;;;;;1.73;0.98;;;;;;;20.20;27.82;93231.34;4774248;30;20088;-74
2022/07/09 00:24:08;;;;;;;7.28;1.23;;;;;;;20.19;27.67;93227.91;4772019;29;20047;-74
2022/07/09 00:26:34;;;;;;;2.38;1.10;;;;;;;20.04;27.60;93224.00;4772375;30;20096;-74
2022/07/09 00:28:59;;;;;;;2.00;1.10;;;;;;;19.94;28.02;93230.50;4772137;30;20402;-74
2022/07/09 00:31:25;;;;;;;2.05;1.20;;;;;;;19.92;28.76;93224.72;4787538;30;20123;-74
2022/07/09 00:33:50;;;;;;;2.60;1.20;;;;;;;19.88;27.37;93225.69;4788079;30;20043;-74
2022/07/09 00:36:16;;;;;;;3.10;1.00;;;;;;;19.78;28.37;93221.56;4772155;30;20035;-74
2022/07/09 00:38:42;;;;;;;3.42;1.10;;;;;;;19.62;30.47;93224.00;4788165;30;20039;-74
2022/07/09 00:41:07;;;;;;;3.88;1.08;;;;;;;19.43;31.04;93227.13;4775317;30;20501;-74
2022/07/09 00:43:33;;;;;;;1.27;0.90;;;;;;;19.33;30.94;93230.91;4754151;30;20097;-74
2022/07/09 00:45:58;;;;;;;1.75;1.08;;;;;;;19.22;31.06;93226.31;4770146;30;20051;-74
2022/07/09 00:48:24;;;;;;;3.60;1.10;;;;;;;19.23;29.35;93233.16;4769060;30;20082;-74
2022/07/09 00:50:50;;;;;;;2.58;0.98;;;;;;;19.25;29.60;93221.16;4769160;30;20461;-74
2022/07/09 00:53:17;;;;;;;3.33;1.08;;;;;;;19.32;27.86;93228.59;4781142;30;20138;-74
2022/07/09 00:55:46;;;;;;;2.13;1.20;;;;;;;19.60;27.55;93226.22;4787802;29;20043;-74
2022/07/09 00:58:13;;;;;;;3.70;1.30;;;;;;;19.47;28.87;93219.28;4787978;30;20106;-74
2022/07/09 01:00:40;;;;;;;1.55;1.00;;;;;;;19.34;29.89;93237.00;4771801;30;20043;-74
2022/07/09 01:03:06;;;;;;;2.47;1.10;;;;;;;19.22;31.27;93247.53;4770958;30;20039;-74
2022/07/09 01:05:35;;;;;;;2.95;1.05;;;;;;;19.21;28.50;93228.19;4770572;30;20506;-74
2022/07/09 01:08:05;;;;;;;1.83;1.10;;;;;;;19.19;28.97;93227.75;4769668;30;20092;-74
2022/07/09 01:10:32;;;;;;;1.58;1.00;;;;;;;19.11;30.24;93225.91;4769773;30;20048;-74
2022/07/09 01:12:58;;;;;;;2.40;1.17;;;;;;;19.00;31.52;93227.38;4772180;30;20046;-74
2022/07/09 01:15:24;;;;;;;1.08;0.98;;;;;;;18.84;32.12;93222.59;4787159;29;20040;-74
2022/07/09 01:17:52;;;;;;;3.67;1.20;;;;;;;18.72;32.33;93222.47;4756826;30;20119;-74
2022/07/09 01:20:29;;;;;;;1.92;1.10;;;;;;;18.63;32.08;93227.81;4787599;30;20451;-74
2022/07/09 01:22:54;;;;;;;3.08;1.10;;;;;;;18.55;32.34;93222.53;4771088;30;20071;-75
2022/07/09 01:25:27;;;;;;;1.10;0.95;;;;;;;18.47;32.76;93218.84;4770541;30;20047;-74
2022/07/09 01:27:53;;;;;;;1.65;1.02;;;;;;;18.35;33.71;93219.50;4787244;29;20036;-74
2022/07/09 01:30:26;;;;;;;1.95;1.10;;;;;;;18.23;35.03;93220.13;4771000;30;20100;-74
2022/07/09 01:32:53;;;;;;;4.32;1.20;;;;;;;18.18;34.43;93222.19;4787156;30;20039;-74
2022/07/09 01:35:21;;;;;;;1.27;0.90;;;;;;;18.13;34.21;93227.66;4786176;29;20059;-74
2022/07/09 01:37:47;;;;;;;2.03;1.20;;;;;;;18.09;33.15;93225.63;4787208;30;20039;-74
2022/07/09 01:40:13;;;;;;;1.80;1.00;;;;;;;18.05;34.48;93229.22;4771100;30;20055;-74
2022/07/09 01:42:39;;;;;;;2.28;1.02;;;;;;;17.99;34.43;93225.16;4787166;30;20067;-74
2022/07/09 01:45:05;;;;;;;3.33;1.15;;;;;;;17.91;34.73;93223.31;4785954;29;20031;-74
2022/07/09 01:47:31;;;;;;;3.92;1.10;;;;;;;17.84;34.62;93223.78;4755370;30;20135;-74
2022/07/09 01:49:57;;;;;;;2.28;1.20;;;;;;;17.79;34.50;93215.97;4770817;30;20100;-74
2022/07/09 01:52:23;;;;;;;1.90;1.20;;;;;;;17.77;33.75;93215.50;4787013;30;20031;-74
2022/07/09 01:54:48;;;;;;;2.53;0.93;;;;;;;17.80;31.72;93213.00;4786369;29;20116;-74
2022/07/09 01:57:14;;;;;;;1.73;1.00;;;;;;;17.81;32.18;93214.59;4770936;30;20118;-74
2022/07/09 01:59:39;;;;;;;7.70;1.20;;;;;;;17.78;33.13;93209.13;4787002;30;20051;-74
2022/07/09 02:02:05;;;;;;;2.22;1.25;;;;;;;17.72;33.40;93211.16;4770209;30;20047;-74
2022/07/09 02:04:31;;;;;;;1.70;1.00;;;;;;;17.68;33.28;93211.00;4770904;30;20520;-74
2022/07/09 02:06:57;;;;;;;2.35;1.00;;;;;;;17.64;33.21;93210.06;4755847;30;20047;-74
2022/07/09 02:09:23;;;;;;;3.17;1.10;;;;;;;17.72;33.33;93215.66;4786426;30;20048;-74
2022/07/09 02:11:49;;;;;;;3.95;1.15;;;;;;;17.95;33.46;93208.38;4786891;30;20421;-74
2022/07/09 02:14:15;;;;;;;1.73;1.10;;;;;;;17.88;33.44;93208.84;4786614;29;20071;-74
2022/07/09 02:16:40;;;;;;;2.00;1.05;;;;;;;17.79;33.63;93210.69;4769896;30;20223;-74
2022/07/09 02:19:06;;;;;;;3.45;1.15;;;;;;;17.71;33.68;93206.94;4769417;30;20438;-74
2022/07/09 02:21:33;;;;;;;4.28;1.20;;;;;;;17.62;34.64;93201.63;4770547;30;20031;-74
2022/07/09 02:23:58;;;;;;;3.38;1.13;;;;;;;17.60;33.74;93203.06;4787207;30;20051;-74
2022/07/09 02:26:25;;;;;;;2.58;1.05;;;;;;;17.56;33.61;93197.63;4769668;30;20395;-74
2022/07/09 02:28:51;;;;;;;2.08;1.08;;;;;;;17.57;33.53;93196.50;4786335;30;20030;-74
2022/07/09 02:31:17;;;;;;;2.20;1.00;;;;;;;17.59;33.32;93196.97;4786621;30;20077;-74
2022/07/09 02:33:43;;;;;;;1.90;1.17;;;;;;;17.59;32.41;93202.28;4786405;30;20130;-74
2022/07/09 02:36:08;;;;;;;1.58;1.10;;;;;;;17.60;32.22;93200.41;4755393;30;20061;-74
2022/07/09 02:38:34;;;;;;;3.38;1.25;;;;;;;17.56;33.25;93202.91;4769770;30;20109;-74
2022/07/09 02:41:01;;;;;;;1.25;1.00;;;;;;;17.52;33.32;93203.81;4770545;30;20074;-74
2022/07/09 02:43:27;;;;;;;2.47;1.27;;;;;;;17.49;32.98;93199.94;4770179;30;20444;-74
2022/07/09 02:45:55;;;;;;;1.98;1.08;;;;;;;17.48;32.61;93199.16;4769543;30;20141;-74
2022/07/09 02:48:25;;;;;;;2.15;1.10;;;;;;;17.45;33.35;93202.44;4754854;30;20551;-74
2022/07/09 02:50:51;;;;;;;2.15;1.20;;;;;;;17.38;33.89;93201.31;4770108;30;20498;-74
2022/07/09 02:53:16;;;;;;;2.33;1.00;;;;;;;17.26;34.26;93194.00;4770097;30;20027;-74
2022/07/09 02:55:42;;;;;;;2.95;1.20;;;;;;;17.26;34.12;93199.31;4769814;30;20399;-74
2022/07/09 02:58:08;;;;;;;4.97;1.50;;;;;;;17.21;33.76;93197.59;4769038;30;20039;-74
2022/07/09 03:00:33;;;;;;;2.55;1.08;;;;;;;17.17;33.80;93196.63;4786069;30;20035;-74
2022/07/09 03:02:59;;;;;;;3.72;1.08;;;;;;;17.15;33.90;93196.16;4785931;30;20072;-74
2022/07/09 03:05:25;;;;;;;1.35;1.02;;;;;;;17.17;33.58;93199.28;4769948;30;20077;-74
2022/07/09 03:07:50;;;;;;;1.80;1.10;;;;;;;17.21;32.81;93202.09;4754591;30;20104;-74
2022/07/09 03:10:16;;;;;;;2.05;1.10;;;;;;;17.26;32.81;93191.34;4754619;30;20283;-74
2022/07/09 03:12:42;;;;;;;2.22;1.23;;;;;;;17.28;32.67;93192.59;4769850;30;20043;-74
2022/07/09 03:15:08;;;;;;;1.42;0.95;;;;;;;17.24;33.44;93196.94;4785736;29;20111;-74
2022/07/09 03:17:34;;;;;;;2.17;1.02;;;;;;;17.20;33.30;93189.94;4786271;29;20035;-74
2022/07/09 03:20:00;;;;;;;2.25;1.15;;;;;;;17.18;33.41;93195.56;4769237;30;20047;-74
2022/07/09 03:22:25;;;;;;;1.77;1.05;;;;;;;17.26;32.58;93194.78;4755028;30;20063;-74
2022/07/09 03:24:51;;;;;;;1.83;1.02;;;;;;;17.25;32.83;93193.22;4785765;29;20039;-74
2022/07/09 03:27:17;;;;;;;1.50;0.90;;;;;;;17.27;32.33;93193.72;4769620;30;20047;-74
2022/07/09 03:29:43;;;;;;;1.73;1.08;;;;;;;17.26;32.94;93192.13;4769039;30;20031;-74
2022/07/09 03:32:08;;;;;;;4.03;1.10;;;;;;;17.23;33.54;93199.94;4769523;30;20121;-74
2022/07/09 03:34:34;;;;;;;1.80;1.20;;;;;;;17.33;33.14;93198.84;4769433;30;20047;-74
2022/07/09 03:37:00;;;;;;;1.75;1.08;;;;;;;17.29;35.37;93198.66;4755097;30;20043;-74
2022/07/09 03:39:25;;;;;;;1.77;1.10;;;;;;;17.27;34.76;93204.28;4768568;30;20059;-74
2022/07/09 03:41:52;;;;;;;2.13;1.10;;;;;;;17.05;35.07;93197.25;4769722;30;20138;-74
2022/07/09 03:44:17;;;;;;;1.77;1.15;;;;;;;16.89;35.95;93201.44;4769035;29;20035;-74
2022/07/09 03:46:43;;;;;;;2.20;1.15;;;;;;;16.75;36.96;93192.78;4769827;30;20525;-74
2022/07/09 03:49:09;;;;;;;1.98;1.05;;;;;;;16.62;37.21;93197.88;4769515;30;20137;-74
2022/07/09 03:51:34;;;;;;;1.90;1.17;;;;;;;16.52;37.70;93200.78;4768779;30;20039;-74
2022/07/09 03:54:00;;;;;;;2.60;1.10;;;;;;;16.43;38.26;93194.69;4785541;30;20051;-74
2022/07/09 03:56:26;;;;;;;2.55;1.20;;;;;;;16.35;38.54;93201.50;4769748;30;20406;-74
2022/07/09 03:58:51;;;;;;;1.77;1.00;;;;;;;16.29;38.19;93205.38;4770062;30;20067;-74
2022/07/09 04:01:17;;;;;;;2.15;1.23;;;;;;;16.23;38.59;93206.56;4772067;30;20070;-74
2022/07/09 04:03:42;;;;;;;2.70;1.42;;;;;;;16.19;38.58;93205.63;4789152;30;20051;-74
2022/07/09 04:06:08;;;;;;;3.83;1.10;;;;;;;16.12;39.49;93205.25;4772844;30;20039;-74
2022/07/09 04:08:33;;;;;;;2.00;1.27;;;;;;;16.07;39.75;93203.53;4758019;30;20096;-74
2022/07/09 04:10:59;;;;;;;2.35;1.40;;;;;;;16.03;40.26;93202.56;4771797;30;20146;-74
2022/07/09 04:13:25;;;;;;;6.88;1.42;;;;;;;15.98;40.80;93203.47;4757927;30;20184;-74
2022/07/09 04:15:50;;;;;;;1.67;1.10;;;;;;;15.95;41.30;93209.38;4787676;29;20524;-74
2022/07/09 04:18:16;;;;;;;2.10;1.08;;;;;;;15.93;41.96;93208.88;4770745;30;20027;-74
2022/07/09 04:20:41;;;;;;;3.22;1.30;;;;;;;15.87;42.66;93218.00;4754928;30;20039;-74
2022/07/09 04:23:07;;;;;;;3.28;1.30;;;;;;;15.86;42.90;93216.47;4787992;30;20047;-74
2022/07/09 04:25:32;;;;;;;2.00;1.20;;;;;;;15.84;43.04;93215.97;4788201;29;20114;-74
2022/07/09 04:27:59;;;;;;;3.00;1.27;;;;;;;15.85;42.95;93227.31;4786244;30;20484;-74
2022/07/09 04:30:26;;;;;;;3.38;1.20;;;;;;;15.83;42.80;93219.72;4786095;30;20122;-74
2022/07/09 04:32:52;;;;;;;2.05;1.10;;;;;;;15.82;43.26;93221.53;4771738;30;20479;-74
2022/07/09 04:35:17;;;;;;;2.17;1.10;;;;;;;15.84;43.92;93225.75;4792071;29;20045;-74
2022/07/09 04:37:43;;;;;;;4.18;1.38;;;;;;;15.82;44.36;93224.19;4777023;30;20524;-74
2022/07/09 04:40:09;;;;;;;3.22;1.30;;;;;;;15.80;44.39;93220.28;4770530;30;20074;-74
2022/07/09 04:42:34;;;;;;;2.15;1.10;;;;;;;15.84;44.31;93223.91;4758695;30;20074;-74
2022/07/09 04:45:01;;;;;;;2.70;1.40;;;;;;;15.86;44.49;93229.66;4772127;30;20031;-74
2022/07/09 04:47:27;;;;;;;2.58;1.35;;;;;;;15.84;44.90;93226.53;4788322;30;20035;-74
2022/07/09 04:49:52;;;;;;;4.82;1.40;;;;;;;15.84;44.65;93220.47;4790396;30;20074;-74
2022/07/09 04:52:19;;;;;;;2.33;1.20;;;;;;;15.88;44.14;93222.22;4776707;30;20039;-74
2022/07/09 04:54:48;;;;;;;4.85;1.23;;;;;;;15.94;43.80;93222.88;4773024;30;20111;-74
2022/07/09 04:57:13;;;;;;;4.10;1.20;;;;;;;15.96;44.42;93220.72;4791195;30;20094;-73
2022/07/09 04:59:39;;;;;;;2.60;1.25;;;;;;;15.99;44.69;93218.25;4790042;30;20494;-74
2022/07/09 05:02:05;;;;;;;3.03;1.38;;;;;;;16.02;45.26;93211.59;4772551;30;20055;-74
2022/07/09 05:04:30;;;;;;;5.18;1.40;;;;;;;16.06;44.54;93219.69;4770556;30;20132;-74
2022/07/09 05:06:56;;;;;;;3.03;1.30;;;;;;;16.08;44.56;93222.81;4772155;30;20035;-74
2022/07/09 05:09:22;;;;;;;3.55;1.42;;;;;;;16.15;44.72;93223.16;4785281;29;20050;-75
2022/07/09 05:11:47;;;;;;;1.67;1.08;;;;;;;16.18;44.81;93219.91;4770429;29;20058;-75
2022/07/09 05:14:13;;;;;;;4.72;1.30;;;;;;;16.28;44.79;93224.16;4782769;29;20039;-75
2022/07/09 05:16:44;;;;;;;3.33;1.30;;;;;;;16.35;44.89;93225.28;4779548;29;20039;-75
2022/07/09 05:19:13;;;;;;;3.05;1.30;;;;;;;16.41;45.52;93218.81;4770108;30;20039;-75
2022/07/09 05:21:41;;;;;;;4.55;1.58;;;;;;;16.45;45.44;93219.72;4786779;29;20494;-75
2022/07/09 05:24:08;;;;;;;6.20;1.30;;;;;;;16.54;45.38;93221.63;4771195;29;20133;-75
2022/07/09 05:26:36;;;;;;;2.67;1.38;;;;;;;16.62;44.74;93223.53;4786010;29;20389;-74
2022/07/09 05:29:03;;;;;;;2.45;1.30;;;;;;;16.69;44.75;93218.59;4782752;29;20502;-75
2022/07/09 05:31:29;;;;;;;3.03;1.30;;;;;;;16.77;44.94;93220.47;4770407;29;20414;-75
2022/07/09 05:33:54;;;;;;;3.58;1.30;;;;;;;16.90;45.28;93218.06;4787193;30;20039;-75
2022/07/09 05:36:20;;;;;;;5.50;1.40;;;;;;;17.08;51.09;93224.94;4756323;30;20039;-76
2022/07/09 05:38:47;;;;;;;2.97;1.58;;;;;;;17.23;50.04;93215.81;4768769;29;20118;-75
2022/07/09 05:41:14;;;;;;;3.95;1.33;;;;;;;17.42;49.73;93223.44;4770079;30;20062;-75
2022/07/09 05:43:40;;;;;;;3.60;1.25;;;;;;;17.51;48.29;93216.28;4778435;29;20043;-75
2022/07/09 05:46:05;;;;;;;4.38;1.40;;;;;;;17.59;47.25;93218.16;4770827;30;20043;-75
2022/07/09 05:48:31;;;;;;;3.13;1.50;;;;;;;17.68;46.64;93226.09;4785299;29;20487;-76
2022/07/09 05:50:56;;;;;;;1.95;1.20;;;;;;;17.83;47.15;93224.88;4785579;29;20042;-75
2022/07/09 05:53:22;;;;;;;2.38;1.20;;;;;;;18.44;46.39;93225.56;4785978;29;20090;-76
2022/07/09 05:55:49;;;;;;;3.28;1.27;;;;;;;19.38;44.30;93213.25;4782647;29;20050;-75
2022/07/09 05:58:15;;;;;;;3.47;1.40;;;;;;;20.33;43.41;93222.31;4785257;29;20490;-77
2022/07/09 06:00:41;;;;;;;2.35;1.30;;;;;;;21.19;42.75;93220.53;4769136;30;20155;-78
2022/07/09 06:03:07;;;;;;;2.78;1.27;;;;;;;21.74;41.87;93221.00;4787851;29;20047;-77
2022/07/09 06:05:33;;;;;;;3.85;1.23;;;;;;;22.44;39.78;93225.19;4785113;29;20429;-77
2022/07/09 06:07:58;;;;;;;3.35;1.40;;;;;;;23.15;39.10;93220.06;4769966;29;20071;-77
2022/07/09 06:10:24;;;;;;;1.90;1.20;;;;;;;23.94;36.80;93211.06;4784912;29;20061;-77
2022/07/09 06:12:50;;;;;;;2.13;1.35;;;;;;;23.78;34.24;93225.28;4786052;29;20078;-78
2022/07/09 06:15:15;;;;;;;1.95;1.10;;;;;;;23.89;35.47;93212.91;4754344;30;20104;-77
2022/07/09 06:17:41;;;;;;;2.72;1.40;;;;;;;24.29;34.29;93214.41;4769973;30;20031;-78
2022/07/09 06:20:09;;;;;;;4.03;1.52;;;;;;;24.54;36.47;93222.13;4752143;30;20070;-77
2022/07/09 06:22:34;;;;;;;4.28;1.52;;;;;;;24.91;36.85;93219.69;4760325;30;20057;-77
2022/07/09 06:25:00;;;;;;;4.38;1.60;;;;;;;24.87;37.53;93220.78;4785581;29;20435;-78
2022/07/09 06:27:26;;;;;;;3.22;1.40;;;;;;;25.31;36.07;93213.06;4770512;30;20210;-77
2022/07/09 06:29:51;;;;;;;3.13;1.60;;;;;;;25.48;34.95;93217.13;4767484;30;20127;-77
2022/07/09 06:32:17;;;;;;;2.80;1.30;;;;;;;26.07;34.61;93214.06;4783091;30;20500;-78
2022/07/09 06:34:42;;;;;;;2.88;1.40;;;;;;;26.36;32.43;93217.84;4767577;30;20043;-77
2022/07/09 06:37:08;;;;;;;4.38;1.45;;;;;;;26.15;32.94;93215.69;4786567;30;20079;-78
2022/07/09 06:39:46;;;;;;;8.68;1.50;;;;;;;25.58;34.07;93231.81;4783910;30;20035;-77
2022/07/09 06:42:13;;;;;;;2.33;1.30;;;;;;;25.24;34.92;93226.38;4781506;30;20074;-77
2022/07/09 06:44:43;;;;;;;3.17;1.25;;;;;;;25.17;34.33;93225.44;4769796;30;20043;-77
2022/07/09 06:47:10;;;;;;;3.22;1.23;;;;;;;25.25;33.96;93221.78;4770067;30;20521;-77
2022/07/09 06:49:36;;;;;;;2.38;1.30;;;;;;;25.38;31.56;93217.00;4784832;30;20054;-77
2022/07/09 06:52:02;;;;;;;2.00;1.30;;;;;;;25.66;30.12;93216.59;4780462;29;20047;-77
2022/07/09 06:54:27;;;;;;;2.95;1.35;;;;;;;25.62;31.14;93213.88;4770018;30;20086;-77
2022/07/09 06:56:53;;;;;;;3.60;1.30;;;;;;;24.88;34.92;93217.75;4760440;29;20529;-77
2022/07/09 06:59:19;;;;;;;2.40;1.20;;;;;;;24.55;35.28;93221.00;4747856;30;20674;-77
2022/07/09 07:01:45;;;;;;;2.90;1.40;;;;;;;23.64;36.09;93223.06;4769644;30;20502;-77
2022/07/09 07:04:12;;;;;;;3.17;1.35;;;;;;;23.33;38.02;93223.13;4786896;29;20027;-76
2022/07/09 07:06:38;;;;;;;4.13;1.30;;;;;;;23.05;37.97;93224.78;4770363;30;20043;-76
2022/07/09 07:09:04;;;;;;;3.28;1.50;;;;;;;23.11;39.02;93225.31;4755182;30;20118;-76
2022/07/09 07:11:30;;;;;;;2.28;1.35;;;;;;;23.23;38.45;93229.78;4754452;30;20154;-76
2022/07/09 07:13:55;;;;;;;2.83;1.30;;;;;;;23.18;36.33;93235.38;4786142;30;20410;-76
2022/07/09 07:16:21;;;;;;;3.90;1.50;;;;;;;22.97;37.35;93220.38;4786254;29;20035;-76
2022/07/09 07:18:46;;;;;;;2.22;1.27;;;;;;;22.86;38.20;93227.38;4786967;30;20367;-76
2022/07/09 07:21:12;;;;;;;3.92;1.42;;;;;;;22.79;37.52;93221.88;4788036;30;20131;-77
2022/07/09 07:23:38;;;;;;;4.90;1.60;;;;;;;22.79;38.60;93229.88;4785870;30;20067;-76
2022/07/09 07:26:03;;;;;;;3.80;1.30;;;;;;;22.74;37.66;93238.91;4769069;30;20038;-76
2022/07/09 07:28:29;;;;;;;4.80;1.50;;;;;;;22.56;41.54;93232.34;4769952;30;20047;-76
2022/07/09 07:30:55;;;;;;;3.03;1.40;;;;;;;22.58;40.93;93238.88;4785997;30;20058;-76
2022/07/09 07:33:20;;;;;;;3.88;1.50;;;;;;;22.72;38.85;93229.69;4786706;29;20038;-76
2022/07/09 07:35:46;;;;;;;2.70;1.48;;;;;;;22.74;40.06;93238.13;4773317;30;20047;-76
2022/07/09 07:38:11;;;;;;;5.60;1.50;;;;;;;22.50;39.76;93229.16;4773208;30;20047;-77
2022/07/09 07:40:37;;;;;;;3.25;1.30;;;;;;;22.37;37.31;93225.78;4773220;30;20088;-76
2022/07/09 07:43:03;;;;;;;2.97;1.40;;;;;;;22.14;40.19;93236.19;4758054;30;20039;-76
2022/07/09 07:45:29;;;;;;;3.13;1.35;;;;;;;22.22;38.12;93229.97;4774482;30;20051;-76
2022/07/09 07:47:55;;;;;;;2.80;1.38;;;;;;;22.45;40.14;93232.09;4777666;30;20399;-75
2022/07/09 07:50:21;;;;;;;2.95;1.48;;;;;;;22.57;38.31;93231.22;4760895;30;20055;-76
2022/07/09 07:52:47;;;;;;;3.35;1.60;;;;;;;22.38;35.07;93232.69;4773571;30;20550;-76
2022/07/09 07:55:12;;;;;;;2.58;1.23;;;;;;;22.32;39.62;93230.59;4793297;29;20104;-75
2022/07/09 07:57:38;;;;;;;3.47;1.42;;;;;;;22.47;38.76;93229.81;4762179;30;20044;-76
2022/07/09 08:00:04;;;;;;;2.05;1.30;;;;;;;22.48;38.40;93225.28;4759950;30;20680;-76
2022/07/09 08:02:37;;;;;;;2.97;1.38;;;;;;;22.79;38.73;93224.53;4789481;30;20678;-76
2022/07/09 08:05:04;;;;;;;2.47;1.45;;;;;;;22.77;36.15;93221.44;4789322;29;20062;-77
2022/07/09 08:07:30;;;;;;;3.05;1.20;;;;;;;22.85;36.19;93223.94;4787818;30;20050;-76
2022/07/09 08:09:56;;;;;;;3.97;1.50;;;;;;;22.62;38.81;93218.41;4772532;30;20032;-77
2022/07/09 08:12:21;;;;;;;3.80;1.30;;;;;;;22.65;37.27;93220.41;4789125;30;20047;-76
2022/07/09 08:14:47;;;;;;;2.47;1.45;;;;;;;22.73;38.21;93215.22;4788650;29;20491;-76
2022/07/09 08:17:13;;;;;;;3.70;1.40;;;;;;;22.74;39.45;93214.09;4788642;30;20043;-77
2022/07/09 08:19:38;;;;;;;2.58;1.45;;;;;;;22.65;38.51;93215.06;4787783;30;20047;-76
2022/07/09 08:22:04;;;;;;;2.63;1.40;;;;;;;22.70;41.02;93221.25;4772266;30;20417;-77
2022/07/09 08:24:30;;;;;;;4.35;1.55;;;;;;;22.83;39.47;93220.84;4772371;30;20046;-76
2022/07/09 08:26:56;;;;;;;5.57;1.50;;;;;;;22.94;39.84;93222.97;4788629;30;20062;-76
2022/07/09 08:29:22;;;;;;;4.47;1.83;;;;;;;22.79;39.08;93213.88;4784281;30;20051;-77
2022/07/09 08:31:49;;;;;;;4.70;1.40;;;;;;;22.78;38.99;93217.63;4778330;30;20140;-76
2022/07/09 08:34:15;;;;;;;4.43;1.52;;;;;;;22.79;39.56;93211.97;4757150;29;20039;-77
2022/07/09 08:36:40;;;;;;;2.83;1.50;;;;;;;22.80;38.06;93210.06;4788832;30;20333;-76
2022/07/09 08:39:06;;;;;;;2.63;1.50;;;;;;;22.88;38.39;93209.13;4757651;30;20043;-77
2022/07/09 08:41:32;;;;;;;5.22;1.50;;;;;;;22.96;38.77;93210.06;4771801;30;20027;-77
2022/07/09 08:43:57;;;;;;;3.58;1.65;;;;;;;22.97;38.08;93204.38;4757054;30;20058;-76
2022/07/09 08:46:23;;;;;;;4.05;1.83;;;;;;;22.94;36.34;93212.28;4757889;30;20039;-77
2022/07/09 08:48:49;;;;;;;2.67;1.48;;;;;;;22.98;36.69;93211.25;4789064;30;20034;-76
2022/07/09 08:51:15;;;;;;;4.10;1.80;;;;;;;22.94;36.27;93205.03;4788077;30;20099;-77
2022/07/09 08:53:43;;;;;;;3.08;1.48;;;;;;;23.02;36.08;93201.47;4771938;30;20035;-77
2022/07/09 08:56:10;;;;;;;3.72;1.40;;;;;;;23.11;35.19;93219.19;4771327;30;20047;-77
2022/07/09 08:58:37;;;;;;;2.65;1.42;;;;;;;23.43;36.83;93210.00;4785923;30;20382;-77
2022/07/09 09:01:04;;;;;;;4.18;1.60;;;;;;;23.22;36.36;93202.28;4758402;30;20039;-77
2022/07/09 09:03:29;;;;;;;4.65;1.40;;;;;;;23.26;36.46;93207.72;4787230;30;20549;-77
2022/07/09 09:06:09;;;;;;;6.72;1.58;;;;;;;23.39;37.65;93208.38;4771118;30;20141;-77
2022/07/09 09:08:39;;;;;;;3.35;1.63;;;;;;;23.75;37.40;93193.88;4789552;30;20517;-77
2022/07/09 09:11:07;;;;;;;3.53;1.40;;;;;;;23.94;35.66;93193.13;4789993;30;20536;-77
2022/07/09 09:13:40;;;;;;;3.22;1.65;;;;;;;23.98;35.15;93195.84;4774692;30;20043;-77
2022/07/09 09:16:08;;;;;;;3.72;2.00;;;;;;;23.75;35.79;93191.22;4789614;29;20094;-77
2022/07/09 09:18:40;;;;;;;3.75;1.48;;;;;;;23.77;36.71;93188.97;4790366;30;20466;-78
2022/07/09 09:21:07;;;;;;;2.83;1.45;;;;;;;23.75;36.62;93185.88;4789997;30;20050;-78
2022/07/09 09:23:39;;;;;;;3.88;1.58;;;;;;;23.52;36.06;93190.34;4755018;30;20047;-77
2022/07/09 09:26:13;;;;;;;4.57;1.60;;;;;;;23.78;37.73;93190.53;4788403;29;20059;-77
2022/07/09 09:28:56;;;;;;;2.75;1.33;;;;;;;23.97;35.87;93170.25;4789227;30;20051;-77
2022/07/09 09:31:23;;;;;;;2.50;1.50;;;;;;;24.18;36.57;93177.88;4789397;30;20091;-77
2022/07/09 09:33:50;;;;;;;2.22;1.27;;;;;;;24.16;35.13;93177.47;4789172;30;20043;-77
2022/07/09 09:36:36;;;;;;;4.05;1.45;;;;;;;23.88;37.02;93175.81;4788056;29;20086;-77
2022/07/09 09:39:13;;;;;;;3.55;1.40;;;;;;;24.34;36.73;93175.13;4773004;30;20102;-77
2022/07/09 09:41:40;;;;;;;1.92;1.17;;;;;;;24.21;35.11;93171.84;4786013;30;20536;-77
2022/07/09 09:44:11;;;;;;;2.90;1.50;;;;;;;24.26;36.22;93175.00;4771384;29;20040;-77
2022/07/09 09:46:38;;;;;;;5.47;1.70;;;;;;;24.41;35.01;93169.88;4771335;30;20138;-77
2022/07/09 09:49:08;;;;;;;3.22;1.60;;;;;;;24.56;35.57;93177.06;4772278;30;20058;-77
2022/07/09 09:51:41;;;;;;;3.83;1.60;;;;;;;24.64;35.78;93168.03;4773259;30;20039;-77
2022/07/09 09:54:08;;;;;;;2.83;1.50;;;;;;;24.70;35.28;93168.47;4784790;30;20503;-79
2022/07/09 09:56:35;;;;;;;6.43;1.60;;;;;;;24.53;35.46;93159.03;4783671;29;20043;-79
2022/07/09 09:59:01;;;;;;;3.08;1.58;;;;;;;24.62;36.39;93161.47;4771140;30;20039;-77
2022/07/09 10:01:28;;;;;;;3.78;1.77;;;;;;;24.96;36.49;93173.09;4783986;30;20051;-77
2022/07/09 10:03:55;;;;;;;2.38;1.48;;;;;;;24.98;35.61;93170.84;4785078;30;20054;-77
2022/07/09 10:06:20;;;;;;;6.03;1.80;;;;;;;25.26;36.16;93167.06;4783823;29;20612;-75
2022/07/09 10:08:46;;;;;;;3.47;1.70;;;;;;;25.17;35.86;93169.97;4784890;30;20043;-75
2022/07/09 10:11:12;;;;;;;3.10;1.67;;;;;;;25.27;35.04;93160.56;4786842;30;20425;-75
2022/07/09 10:13:48;;;;;;;2.45;1.50;;;;;;;25.25;35.92;93168.19;4787851;30;20126;-76
2022/07/09 10:16:14;;;;;;;2.80;1.63;;;;;;;25.42;35.09;93162.31;4782437;29;20046;-76
2022/07/09 10:18:53;;;;;;;3.25;1.40;;;;;;;25.50;34.16;93152.44;4765968;30;20035;-75
2022/07/09 10:21:30;;;;;;;4.32;1.70;;;;;;;25.25;33.50;93152.88;4787091;30;20061;-76
2022/07/09 10:23:56;;;;;;;2.83;1.60;;;;;;;25.26;35.23;93154.41;4779394;30;20494;-76
2022/07/09 10:26:21;;;;;;;4.50;2.20;;;;;;;25.49;34.31;93159.72;4782941;29;20045;-76
2022/07/09 10:28:47;;;;;;;2.55;1.50;;;;;;;25.25;34.39;93152.13;4767835;30;20674;-76
2022/07/09 10:31:20;;;;;;;3.40;1.58;;;;;;;25.36;31.46;93153.03;4770440;30;20146;-77
2022/07/09 10:34:01;;;;;;;3.65;1.58;;;;;;;25.41;33.94;93150.03;4785456;30;20039;-76
2022/07/09 10:36:27;;;;;;;4.45;1.70;;;;;;;25.46;37.59;93146.28;4753971;30;20089;-76
2022/07/09 10:38:57;;;;;;;4.35;1.75;;;;;;;25.60;37.98;93154.50;4784035;30;20063;-76
2022/07/09 10:41:23;;;;;;;3.17;1.48;;;;;;;25.64;36.61;93146.50;4784398;30;20055;-76
2022/07/09 10:43:53;;;;;;;4.63;1.60;;;;;;;25.99;36.21;93148.09;4768099;30;20500;-76
2022/07/09 10:46:19;;;;;;;2.92;1.52;;;;;;;26.28;36.28;93144.53;4779607;29;20027;-76
2022/07/09 10:48:46;;;;;;;2.90;1.55;;;;;;;26.25;34.29;93142.59;4781874;30;20042;-77
2022/07/09 10:51:23;;;;;;;2.28;1.50;;;;;;;26.27;35.66;93139.53;4783692;30;20391;-76
2022/07/09 10:53:48;;;;;;;3.92;1.70;;;;;;;26.40;33.23;93137.38;4768139;30;20044;-77
2022/07/09 10:56:19;;;;;;;2.53;1.50;;;;;;;26.31;33.03;93135.75;4768983;30;20376;-77
2022/07/09 10:58:50;;;;;;;4.47;2.00;;;;;;;26.09;35.15;93134.75;4769959;30;20088;-78
2022/07/09 11:01:20;;;;;;;5.10;1.70;;;;;;;26.26;33.83;93121.91;4768542;30;20039;-77
2022/07/09 11:03:50;;;;;;;2.25;1.50;;;;;;;26.44;36.07;93116.69;4782975;30;20074;-76
2022/07/09 11:06:15;;;;;;;6.20;1.83;;;;;;;26.42;35.34;93118.97;4779372;29;20464;-76
2022/07/09 11:08:41;;;;;;;4.60;1.60;;;;;;;26.06;34.65;93118.66;4782844;30;20046;-76
2022/07/09 11:11:06;;;;;;;2.88;1.80;;;;;;;26.10;35.67;93117.53;4781944;30;20664;-76
2022/07/09 11:13:32;;;;;;;3.72;1.80;;;;;;;25.75;32.93;93112.53;4754032;30;20044;-76
2022/07/09 11:16:02;;;;;;;3.08;1.90;;;;;;;25.77;33.90;93115.63;4765222;29;20048;-75
2022/07/09 11:18:29;;;;;;;3.15;1.67;;;;;;;25.94;34.15;93106.28;4780591;30;20074;-75
2022/07/09 11:20:55;;;;;;;3.50;1.60;;;;;;;26.31;34.26;93121.56;4763575;30;20088;-76
2022/07/09 11:23:20;;;;;;;3.33;1.50;;;;;;;26.53;33.30;93114.47;4784557;30;20054;-77
2022/07/09 11:25:48;;;;;;;4.82;1.90;;;;;;;26.18;34.61;93105.72;4784581;29;20047;-77
2022/07/09 11:28:22;;;;;;;4.38;1.80;;;;;;;26.02;35.84;93105.19;4783149;30;20097;-76
2022/07/09 11:31:01;;;;;;;3.55;1.80;;;;;;;25.67;35.81;93102.84;4778965;29;20043;-75
2022/07/09 11:34:10;;;;;;;3.40;1.75;;;;;;;24.92;35.49;93102.66;4780938;30;20043;-76